Time;durP1;ratioP1;P1;durP2;ratioP2;P2;SDS_P1;SDS_P2;PMS_P1;PMS_P2;Temp;Humidity;BMP_temperature;BMP_pressure;BME280_temperature;BME280_humidity;BME280_pressure;Samples;Min_cycle;Max_cycle;Signal;HPM_P1;HPM_P2
2023/09/29 00:00:27;;;;;;;2.83;1.50;;;16.50;99.90;;;;;;5074757;28;20831;-87
2023/09/29 00:02:55;;;;;;;1.27;1.10;;;16.50;99.90;;;;;;5074837;28;20471;-87
2023/09/29 00:05:22;;;;;;;2.87;1.80;;;16.60;99.90;;;;;;5074814;28;20483;-86
2023/09/29 00:07:51;;;;;;;2.60;1.60;;;16.60;99.90;;;;;;5074328;28;21027;-87
2023/09/29 00:10:20;;;;;;;1.23;1.10;;;16.70;99.90;;;;;;5074530;28;20544;-87
2023/09/29 00:12:49;;;;;;;3.03;1.30;;;16.70;99.90;;;;;;5074718;28;20879;-87
2023/09/29 00:15:17;;;;;;;2.00;1.63;;;16.70;99.90;;;;;;5074385;28;20449;-87
2023/09/29 00:17:44;;;;;;;2.27;1.43;;;16.70;99.90;;;;;;5074419;28;20449;-87
2023/09/29 00:20:23;;;;;;;1.70;1.60;;;16.70;99.90;;;;;;5074396;28;20477;-87
2023/09/29 00:22:50;;;;;;;2.97;1.47;;;16.70;99.90;;;;;;5074021;28;20864;-87
2023/09/29 00:25:17;;;;;;;2.10;1.23;;;16.70;99.90;;;;;;5074257;28;20445;-87
2023/09/29 00:27:44;;;;;;;7.03;1.20;;;16.70;99.90;;;;;;5074339;28;20464;-87
2023/09/29 00:30:14;;;;;;;2.97;1.43;;;16.70;99.90;;;;;;5074271;28;20480;-86
2023/09/29 00:32:46;;;;;;;1.43;1.23;;;16.70;99.90;;;;;;5074671;28;20467;-86
2023/09/29 00:35:18;;;;;;;1.57;1.47;;;16.60;99.90;;;;;;5074276;28;20433;-87
2023/09/29 00:37:45;;;;;;;1.20;0.90;;;16.60;99.90;;;;;;5074208;28;20437;-87
2023/09/29 00:40:14;;;;;;;1.40;0.97;;;16.60;99.90;;;;;;5074280;28;20491;-87
2023/09/29 00:42:42;;;;;;;1.00;1.00;;;16.60;99.90;;;;;;5073642;28;20489;-86
2023/09/29 00:45:10;;;;;;;1.43;1.23;;;16.50;99.90;;;;;;5073954;28;20449;-87
2023/09/29 00:47:39;;;;;;;2.03;1.83;;;16.50;99.90;;;;;;5074244;28;20444;-87
2023/09/29 00:50:11;;;;;;;1.50;1.23;;;16.50;99.90;;;;;;5073760;28;20433;-87
2023/09/29 00:52:39;;;;;;;1.70;1.30;;;16.40;99.90;;;;;;5073673;28;20997;-87
2023/09/29 00:55:11;;;;;;;1.47;1.37;;;16.40;99.90;;;;;;5073914;28;20540;-87
2023/09/29 00:57:38;;;;;;;1.50;1.07;;;16.40;99.90;;;;;;5073722;28;20799;-85
2023/09/29 01:00:13;;;;;;;1.63;1.53;;;16.40;99.90;;;;;;5073644;28;20859;-87
2023/09/29 01:02:43;;;;;;;1.20;1.10;;;16.30;99.90;;;;;;5073805;28;20464;-87
2023/09/29 01:05:12;;;;;;;2.80;1.67;;;16.30;99.90;;;;;;5073894;28;20562;-86
2023/09/29 01:07:38;;;;;;;1.57;1.47;;;16.30;99.90;;;;;;5084055;28;20808;-86
2023/09/29 01:10:06;;;;;;;1.57;1.37;;;16.30;99.90;;;;;;5072952;28;20448;-87
2023/09/29 01:12:34;;;;;;;1.73;1.10;;;16.30;99.90;;;;;;5073529;28;20468;-86
2023/09/29 01:15:01;;;;;;;2.13;1.23;;;16.30;99.90;;;;;;5073384;28;20452;-87
2023/09/29 01:17:28;;;;;;;2.53;1.67;;;16.20;99.90;;;;;;5073738;28;20455;-86
2023/09/29 01:19:56;;;;;;;1.37;1.17;;;16.20;99.90;;;;;;5073620;28;20445;-86
2023/09/29 01:22:23;;;;;;;1.43;1.30;;;16.20;99.90;;;;;;5073426;28;20457;-87
2023/09/29 01:24:51;;;;;;;2.13;1.70;;;16.20;99.90;;;;;;5073697;28;20447;-87
2023/09/29 01:27:18;;;;;;;1.47;1.40;;;16.10;99.90;;;;;;5073620;28;20441;-86
2023/09/29 01:29:47;;;;;;;1.40;1.30;;;16.10;99.90;;;;;;5073634;28;20440;-86
2023/09/29 01:32:14;;;;;;;3.90;1.60;;;16.10;99.90;;;;;;5073605;28;20460;-86
2023/09/29 01:34:41;;;;;;;3.17;1.73;;;16.10;99.90;;;;;;5073185;28;20444;-87
2023/09/29 01:37:11;;;;;;;2.20;0.90;;;16.10;99.90;;;;;;5073397;28;20445;-87
2023/09/29 01:39:38;;;;;;;6.13;1.37;;;16.10;99.90;;;;;;5073621;28;20461;-86
2023/09/29 01:42:07;;;;;;;1.23;1.17;;;16.10;99.90;;;;;;5073044;28;20500;-86
2023/09/29 01:44:33;;;;;;;2.73;1.37;;;16.10;99.90;;;;;;5073417;28;20437;-87
2023/09/29 01:47:00;;;;;;;2.83;1.63;;;16.10;99.90;;;;;;5073510;28;20444;-87
2023/09/29 01:49:27;;;;;;;4.63;1.90;;;16.10;99.90;;;;;;5073144;28;20460;-87
2023/09/29 01:51:54;;;;;;;4.20;1.53;;;16.10;99.90;;;;;;5073555;28;20463;-86
2023/09/29 01:54:20;;;;;;;1.60;1.30;;;16.20;99.90;;;;;;5072977;28;20456;-87
2023/09/29 01:56:47;;;;;;;1.60;1.10;;;16.20;99.90;;;;;;5073265;28;20440;-86
2023/09/29 01:59:15;;;;;;;1.50;1.13;;;16.20;99.90;;;;;;5073384;28;20445;-87
2023/09/29 02:01:42;;;;;;;1.90;1.70;;;16.20;99.90;;;;;;5072967;28;21017;-86
2023/09/29 02:04:09;;;;;;;4.03;1.23;;;16.20;99.90;;;;;;5073223;28;20449;-87
2023/09/29 02:06:37;;;;;;;5.80;1.40;;;16.20;99.90;;;;;;5072804;28;20456;-87
2023/09/29 02:09:11;;;;;;;5.93;1.83;;;16.20;99.90;;;;;;5072924;28;20489;-86
2023/09/29 02:11:39;;;;;;;1.27;1.20;;;16.10;99.90;;;;;;5072951;28;20936;-86
2023/09/29 02:14:06;;;;;;;1.87;1.17;;;16.10;99.90;;;;;;5073055;28;20877;-87
2023/09/29 02:16:35;;;;;;;2.73;2.00;;;16.10;99.90;;;;;;5073051;28;20459;-87
2023/09/29 02:19:03;;;;;;;2.17;1.53;;;16.10;99.90;;;;;;5073004;28;20452;-87
2023/09/29 02:21:31;;;;;;;1.77;1.30;;;16.10;99.90;;;;;;5074868;28;20476;-86
2023/09/29 02:23:58;;;;;;;2.10;1.87;;;16.10;99.90;;;;;;5076646;28;20445;-87
2023/09/29 02:26:26;;;;;;;2.43;2.20;;;16.10;99.90;;;;;;5076573;28;20456;-86
2023/09/29 02:28:54;;;;;;;3.17;1.40;;;16.20;99.90;;;;;;5076523;28;20445;-87
2023/09/29 02:31:20;;;;;;;1.90;1.23;;;16.20;99.90;;;;;;5076409;28;20491;-87
2023/09/29 02:33:50;;;;;;;1.67;1.57;;;16.20;99.90;;;;;;5076429;28;20425;-87
2023/09/29 02:36:17;;;;;;;2.27;1.20;;;16.20;99.90;;;;;;5076386;28;20445;-87
2023/09/29 02:38:44;;;;;;;2.80;1.60;;;16.20;99.90;;;;;;5076403;28;20445;-87
2023/09/29 02:41:10;;;;;;;2.03;1.60;;;16.20;99.90;;;;;;5076285;28;20476;-87
2023/09/29 02:43:38;;;;;;;3.70;2.33;;;16.30;99.90;;;;;;5075892;28;20464;-86
2023/09/29 02:46:05;;;;;;;1.47;1.37;;;16.30;99.90;;;;;;5076336;28;20451;-87
2023/09/29 02:48:32;;;;;;;1.90;1.57;;;16.30;99.90;;;;;;5075892;28;20425;-86
2023/09/29 02:51:00;;;;;;;1.87;1.70;;;17.10;99.90;;;;;;5076164;28;20494;-86
2023/09/29 02:53:26;;;;;;;4.97;1.50;;;16.20;99.90;;;;;;5075898;28;20825;-87
2023/09/29 02:55:53;;;;;;;3.23;1.47;;;16.20;99.90;;;;;;5076150;28;20441;-87
2023/09/29 02:58:20;;;;;;;1.97;1.40;;;16.20;99.90;;;;;;5075859;28;20436;-87
2023/09/29 03:00:47;;;;;;;2.43;1.70;;;16.20;99.90;;;;;;5075973;28;20538;-86
2023/09/29 03:03:14;;;;;;;2.83;1.60;;;16.20;99.90;;;;;;5075867;28;20469;-86
2023/09/29 03:05:43;;;;;;;2.60;1.57;;;16.20;99.90;;;;;;5076227;28;20535;-86
2023/09/29 03:08:11;;;;;;;1.93;1.23;;;16.20;99.90;;;;;;5076535;28;20453;-86
2023/09/29 03:10:37;;;;;;;2.23;1.60;;;16.10;99.90;;;;;;5075917;28;20445;-87
2023/09/29 03:13:05;;;;;;;3.23;1.80;;;16.10;99.90;;;;;;5075926;28;20468;-87
2023/09/29 03:15:32;;;;;;;3.60;1.53;;;16.20;99.90;;;;;;5075911;28;20449;-87
2023/09/29 03:18:00;;;;;;;1.67;1.43;;;16.10;99.90;;;;;;5075828;28;20448;-86
2023/09/29 03:20:27;;;;;;;2.27;1.53;;;16.20;99.90;;;;;;5075462;28;20453;-87
2023/09/29 03:22:58;;;;;;;3.20;2.50;;;16.20;99.90;;;;;;5075631;28;20563;-87
2023/09/29 03:25:26;;;;;;;2.43;1.47;;;16.20;99.90;;;;;;5075750;28;20968;-87
2023/09/29 03:27:53;;;;;;;1.67;1.40;;;16.20;99.90;;;;;;5075502;28;20441;-87
2023/09/29 03:30:21;;;;;;;1.50;1.27;;;16.20;99.90;;;;;;5075792;28;20440;-87
2023/09/29 03:32:48;;;;;;;2.23;1.77;;;16.10;99.90;;;;;;5074213;28;20464;-87
2023/09/29 03:35:15;;;;;;;3.80;1.80;;;16.10;99.90;;;;;;5075430;28;20437;-87
2023/09/29 03:37:43;;;;;;;1.80;1.37;;;16.00;99.90;;;;;;5075372;28;20445;-87
2023/09/29 03:40:13;;;;;;;3.93;1.63;;;16.00;99.90;;;;;;5075820;28;20465;-87
2023/09/29 03:42:42;;;;;;;1.73;1.30;;;16.10;99.90;;;;;;5074655;28;21005;-87
2023/09/29 03:45:11;;;;;;;3.33;1.80;;;16.10;99.90;;;;;;5075605;28;20546;-87
2023/09/29 03:47:38;;;;;;;1.90;1.80;;;16.10;99.90;;;;;;5075560;28;20468;-87
2023/09/29 03:50:08;;;;;;;2.10;1.10;;;16.00;99.90;;;;;;5075515;28;20445;-87
2023/09/29 03:52:35;;;;;;;11.30;2.37;;;16.00;99.90;;;;;;5075182;28;20469;-87
2023/09/29 03:55:02;;;;;;;4.70;1.53;;;16.00;99.90;;;;;;5075241;28;20460;-87
2023/09/29 03:57:29;;;;;;;3.90;1.90;;;16.10;99.90;;;;;;5074804;28;20453;-87
2023/09/29 03:59:57;;;;;;;1.47;1.23;;;16.10;99.90;;;;;;5074883;28;20441;-87
2023/09/29 04:02:23;;;;;;;2.63;1.53;;;16.30;99.90;;;;;;5074929;28;20497;-86
2023/09/29 04:04:50;;;;;;;2.47;1.80;;;16.10;99.90;;;;;;5074759;28;20433;-87
2023/09/29 04:07:17;;;;;;;3.57;1.93;;;16.10;99.90;;;;;;5074688;28;20451;-87
2023/09/29 04:09:44;;;;;;;4.50;1.80;;;16.10;99.90;;;;;;5074705;28;20805;-86
2023/09/29 04:12:11;;;;;;;1.60;1.40;;;16.10;99.90;;;;;;5074773;28;20464;-87
2023/09/29 04:14:38;;;;;;;6.07;1.63;;;16.00;99.90;;;;;;5074583;28;20461;-87
2023/09/29 04:17:06;;;;;;;2.50;1.33;;;16.00;99.90;;;;;;5074750;28;20460;-87
2023/09/29 04:19:35;;;;;;;2.60;1.40;;;16.00;99.90;;;;;;5074600;28;20449;-87
2023/09/29 04:22:01;;;;;;;3.30;1.90;;;16.00;99.90;;;;;;5074353;28;20985;-87
2023/09/29 04:24:28;;;;;;;2.20;1.30;;;16.00;99.90;;;;;;5074525;28;20821;-87
2023/09/29 04:26:55;;;;;;;2.60;1.70;;;16.00;99.90;;;;;;5074496;28;20441;-87
2023/09/29 04:29:22;;;;;;;2.47;1.37;;;16.10;99.90;;;;;;5074719;28;20849;-87
2023/09/29 04:31:48;;;;;;;4.03;1.20;;;16.10;99.90;;;;;;5074309;28;20461;-87
2023/09/29 04:34:17;;;;;;;2.07;1.80;;;16.00;99.90;;;;;;5074776;28;20449;-87
2023/09/29 04:36:45;;;;;;;2.40;1.60;;;16.10;99.90;;;;;;5074399;28;20441;-87
2023/09/29 04:39:11;;;;;;;1.87;1.57;;;16.10;99.90;;;;;;5074791;28;20453;-87
2023/09/29 04:41:39;;;;;;;1.97;1.30;;;16.10;99.90;;;;;;5073563;28;20839;-87
2023/09/29 04:44:06;;;;;;;2.70;2.00;;;16.20;99.90;;;;;;5073981;28;20430;-87
2023/09/29 04:46:34;;;;;;;1.63;1.23;;;16.20;99.90;;;;;;5073835;28;20456;-86
2023/09/29 04:49:03;;;;;;;2.47;1.67;;;16.30;99.90;;;;;;5074356;28;20441;-87
2023/09/29 04:51:31;;;;;;;2.60;1.63;;;16.30;99.90;;;;;;5074175;28;20536;-86
2023/09/29 04:53:58;;;;;;;4.13;2.13;;;16.30;99.90;;;;;;5073956;28;20440;-86
2023/09/29 04:56:25;;;;;;;4.33;1.73;;;16.30;99.90;;;;;;5073955;28;20444;-87
2023/09/29 04:58:52;;;;;;;3.00;1.80;;;16.30;99.90;;;;;;5073929;28;20455;-86
2023/09/29 05:01:18;;;;;;;2.90;2.20;;;16.30;99.90;;;;;;5073671;28;20455;-87
2023/09/29 05:03:47;;;;;;;4.23;1.50;;;16.30;99.90;;;;;;5073763;28;20469;-86
2023/09/29 05:06:13;;;;;;;1.60;1.50;;;16.30;99.90;;;;;;5073569;28;20445;-87
2023/09/29 05:08:41;;;;;;;1.50;1.40;;;16.30;99.90;;;;;;5073696;28;20453;-86
2023/09/29 05:11:08;;;;;;;1.63;1.30;;;16.30;99.90;;;;;;5073818;28;20448;-87
2023/09/29 05:13:35;;;;;;;2.33;1.60;;;16.40;99.90;;;;;;5073402;28;20468;-86
2023/09/29 05:16:02;;;;;;;2.87;1.60;;;16.40;99.90;;;;;;5073863;28;20548;-87
2023/09/29 05:18:29;;;;;;;1.93;1.77;;;16.40;99.90;;;;;;5073580;28;20453;-86
2023/09/29 05:20:55;;;;;;;2.67;1.50;;;16.40;99.90;;;;;;5073504;28;20792;-86
2023/09/29 05:23:22;;;;;;;3.63;1.67;;;16.50;99.90;;;;;;5073241;28;20994;-87
2023/09/29 05:25:50;;;;;;;1.93;1.30;;;16.50;99.90;;;;;;5073529;28;20448;-87
2023/09/29 05:28:17;;;;;;;2.40;1.87;;;16.50;99.90;;;;;;5073639;28;20790;-87
2023/09/29 05:30:53;;;;;;;2.67;1.80;;;16.60;99.90;;;;;;5073657;28;20439;-87
2023/09/29 05:33:19;;;;;;;3.37;1.90;;;16.60;99.90;;;;;;5073462;28;20452;-86
2023/09/29 05:35:47;;;;;;;2.23;2.03;;;16.60;99.90;;;;;;5073505;28;20445;-86
2023/09/29 05:38:13;;;;;;;1.40;1.30;;;16.70;99.90;;;;;;5073327;28;20484;-87
2023/09/29 05:40:40;;;;;;;1.40;1.30;;;16.70;99.90;;;;;;5073333;28;20949;-87
2023/09/29 05:43:10;;;;;;;5.37;1.60;;;16.70;99.90;;;;;;5072917;28;20499;-87
2023/09/29 05:45:37;;;;;;;2.30;1.57;;;16.70;99.90;;;;;;5073373;28;20445;-87
2023/09/29 05:48:04;;;;;;;5.60;2.13;;;16.80;99.90;;;;;;5073492;28;20817;-87
2023/09/29 05:50:31;;;;;;;3.00;1.83;;;16.80;99.90;;;;;;5073289;28;20452;-87
2023/09/29 05:52:57;;;;;;;2.00;1.47;;;16.80;99.90;;;;;;5073242;28;20472;-87
2023/09/29 05:55:24;;;;;;;1.47;1.37;;;16.80;99.90;;;;;;5074050;28;20452;-87
2023/09/29 05:57:51;;;;;;;8.73;1.70;;;16.80;99.90;;;;;;5077113;28;20954;-87
2023/09/29 06:00:20;;;;;;;2.07;1.80;;;16.90;99.90;;;;;;5077041;28;20441;-87
2023/09/29 06:02:48;;;;;;;3.67;1.50;;;17.00;99.90;;;;;;5076929;28;20488;-87
2023/09/29 06:05:15;;;;;;;1.63;1.30;;;17.20;99.90;;;;;;5077978;28;20444;-87
2023/09/29 06:07:42;;;;;;;4.23;1.50;;;17.30;99.90;;;;;;5076878;28;20938;-87
2023/09/29 06:10:10;;;;;;;1.63;1.23;;;17.50;99.90;;;;;;5077020;28;20444;-87
2023/09/29 06:12:37;;;;;;;2.43;1.50;;;17.60;99.90;;;;;;5077056;28;20469;-87
2023/09/29 06:15:05;;;;;;;1.93;1.73;;;17.70;99.90;;;;;;5076531;28;20455;-87
2023/09/29 06:17:33;;;;;;;2.40;1.53;;;17.80;99.90;;;;;;5077032;28;20480;-87
2023/09/29 06:20:00;;;;;;;4.10;1.80;;;17.90;99.90;;;;;;5077071;28;20452;-87
2023/09/29 06:22:27;;;;;;;1.33;1.23;;;17.90;99.90;;;;;;5076979;28;20488;-87
2023/09/29 06:24:53;;;;;;;3.40;1.90;;;17.90;99.90;;;;;;5076855;28;20445;-87
2023/09/29 06:27:20;;;;;;;1.63;1.20;;;17.90;99.90;;;;;;5076642;28;20956;-86
2023/09/29 06:29:50;;;;;;;1.60;1.50;;;17.90;99.90;;;;;;5077172;28;20447;-87
2023/09/29 06:32:16;;;;;;;3.23;1.43;;;17.90;99.90;;;;;;5076790;28;20498;-87
2023/09/29 06:34:45;;;;;;;3.77;1.60;;;17.90;99.90;;;;;;5077189;28;20441;-87
2023/09/29 06:37:12;;;;;;;2.03;1.40;;;17.90;99.90;;;;;;5076610;28;20451;-87
2023/09/29 06:39:39;;;;;;;2.63;1.50;;;17.90;99.90;;;;;;5076632;28;20445;-87
2023/09/29 06:42:07;;;;;;;1.57;1.47;;;17.90;99.90;;;;;;5075897;28;20496;-86
2023/09/29 06:44:35;;;;;;;2.90;1.73;;;18.00;99.90;;;;;;5076545;28;20447;-87
2023/09/29 06:47:02;;;;;;;1.53;1.10;;;18.00;99.90;;;;;;5075950;28;20440;-86
2023/09/29 06:49:28;;;;;;;2.10;1.67;;;18.00;99.90;;;;;;5076248;28;20453;-86
2023/09/29 06:51:56;;;;;;;1.40;1.30;;;18.00;99.90;;;;;;5075883;28;20926;-87
2023/09/29 06:54:23;;;;;;;3.80;1.10;;;18.10;99.90;;;;;;5076246;28;20476;-87
2023/09/29 06:56:50;;;;;;;1.60;1.37;;;18.10;99.90;;;;;;5076084;28;20452;-87
2023/09/29 06:59:17;;;;;;;1.83;1.60;;;18.10;99.90;;;;;;5076365;28;20449;-86
2023/09/29 07:01:44;;;;;;;1.60;1.50;;;18.10;99.90;;;;;;5075979;28;20465;-87
2023/09/29 07:04:11;;;;;;;1.77;1.60;;;18.20;99.90;;;;;;5076048;28;20851;-86
2023/09/29 07:06:38;;;;;;;2.57;1.70;;;18.70;99.90;;;;;;5075339;28;20806;-86
2023/09/29 07:09:07;;;;;;;5.30;1.73;;;18.20;99.90;;;;;;5075356;28;20445;-87
2023/09/29 07:11:34;;;;;;;4.00;2.00;;;18.20;99.90;;;;;;5076307;28;20445;-86
2023/09/29 07:14:00;;;;;;;3.00;1.70;;;18.30;99.90;;;;;;5075747;28;20814;-86
2023/09/29 07:16:28;;;;;;;1.87;1.33;;;18.50;99.90;;;;;;5075247;28;20451;-86
2023/09/29 07:18:55;;;;;;;1.43;1.33;;;18.30;99.90;;;;;;5075394;28;20506;-87
2023/09/29 07:21:22;;;;;;;1.27;1.17;;;18.30;99.90;;;;;;5075572;28;20456;-87
2023/09/29 07:23:48;;;;;;;2.47;1.23;;;18.40;99.90;;;;;;5075594;28;20477;-87
2023/09/29 07:26:16;;;;;;;2.00;1.30;;;18.40;99.90;;;;;;5075935;28;20472;-86
2023/09/29 07:28:43;;;;;;;1.20;1.10;;;18.50;99.90;;;;;;5075094;28;20447;-86
2023/09/29 07:31:10;;;;;;;1.90;1.23;;;18.50;99.90;;;;;;5075387;28;20445;-86
2023/09/29 07:33:37;;;;;;;1.50;1.40;;;18.60;99.90;;;;;;5075336;28;20972;-86
2023/09/29 07:36:05;;;;;;;1.53;1.20;;;18.70;99.90;;;;;;5075097;28;20437;-86
2023/09/29 07:38:32;;;;;;;1.83;1.60;;;18.80;99.90;;;;;;5075344;28;20441;-86
2023/09/29 07:40:59;;;;;;;4.67;1.70;;;18.90;99.90;;;;;;5075259;28;20441;-86
2023/09/29 07:43:27;;;;;;;1.60;1.50;;;18.90;99.90;;;;;;5075095;28;20499;-87
2023/09/29 07:45:54;;;;;;;3.63;2.10;;;19.00;99.90;;;;;;5074712;28;20938;-87
2023/09/29 07:48:21;;;;;;;2.50;2.20;;;19.00;99.90;;;;;;5075100;28;20445;-86
2023/09/29 07:50:48;;;;;;;1.50;1.30;;;19.60;99.90;;;;;;5075246;28;20441;-87
2023/09/29 07:53:15;;;;;;;1.80;1.27;;;19.00;99.90;;;;;;5074924;28;20471;-85
2023/09/29 07:55:41;;;;;;;2.00;1.80;;;19.00;99.90;;;;;;5074979;28;20449;-86
2023/09/29 07:58:08;;;;;;;3.03;1.60;;;19.10;99.90;;;;;;5074768;28;20861;-86
2023/09/29 08:00:36;;;;;;;1.30;1.20;;;19.10;99.90;;;;;;5074810;28;20456;-86
2023/09/29 08:03:03;;;;;;;1.50;1.30;;;19.30;99.90;;;;;;5074566;28;20488;-87
2023/09/29 08:05:30;;;;;;;2.63;1.57;;;19.60;99.90;;;;;;5074462;28;20968;-86
2023/09/29 08:07:56;;;;;;;1.57;1.23;;;19.80;99.90;;;;;;5074695;28;20444;-87
2023/09/29 08:10:23;;;;;;;1.47;1.13;;;20.00;99.90;;;;;;5074608;28;20441;-87
2023/09/29 08:12:52;;;;;;;3.73;1.67;;;20.10;99.90;;;;;;5074466;28;20464;-87
2023/09/29 08:15:21;;;;;;;1.40;1.30;;;20.00;99.90;;;;;;5074472;28;20459;-86
2023/09/29 08:17:49;;;;;;;1.83;1.73;;;20.00;99.90;;;;;;5074443;28;20444;-86
2023/09/29 08:20:17;;;;;;;2.30;1.30;;;20.20;99.90;;;;;;5073937;28;20440;-85
2023/09/29 08:22:44;;;;;;;7.40;1.47;;;20.40;99.90;;;;;;5074135;28;20571;-87
2023/09/29 08:25:11;;;;;;;3.63;2.30;;;20.50;99.90;;;;;;5074318;28;20451;-87
2023/09/29 08:27:38;;;;;;;3.40;1.77;;;20.60;99.90;;;;;;5074385;28;20452;-86
2023/09/29 08:30:07;;;;;;;1.80;1.20;;;20.60;99.90;;;;;;5074244;28;20941;-86
2023/09/29 08:32:34;;;;;;;1.20;1.07;;;20.60;99.90;;;;;;5074079;28;20468;-87
2023/09/29 08:35:02;;;;;;;1.20;1.07;;;20.70;99.90;;;;;;5074131;28;20447;-86
2023/09/29 08:37:29;;;;;;;7.03;1.33;;;20.70;99.90;;;;;;5073646;28;20977;-86
2023/09/29 08:39:55;;;;;;;3.07;1.53;;;20.80;99.90;;;;;;5074007;28;20435;-87
2023/09/29 08:42:30;;;;;;;4.53;1.53;;;20.90;99.90;;;;;;5073521;28;20527;-86
2023/09/29 08:45:00;;;;;;;1.63;1.23;;;21.00;99.90;;;;;;5074137;28;20506;-86
2023/09/29 08:47:29;;;;;;;1.80;1.33;;;21.20;99.90;;;;;;5074203;28;20449;-86
2023/09/29 08:49:58;;;;;;;1.80;1.70;;;21.40;99.90;;;;;;5073553;28;20448;-87
2023/09/29 08:52:29;;;;;;;2.83;1.67;;;21.70;99.90;;;;;;5073999;28;20464;-86
2023/09/29 08:54:56;;;;;;;2.13;1.47;;;22.00;99.90;;;;;;5073846;28;20429;-86
2023/09/29 08:57:25;;;;;;;2.33;1.40;;;22.10;99.90;;;;;;5073800;28;20817;-86
2023/09/29 08:59:53;;;;;;;2.10;1.70;;;22.50;99.90;;;;;;5073566;28;20448;-87
2023/09/29 09:02:21;;;;;;;2.23;1.33;;;23.00;99.90;;;;;;5073394;28;20981;-87
2023/09/29 09:04:48;;;;;;;0.90;0.83;;;23.00;99.90;;;;;;5073908;28;20487;-87
2023/09/29 09:07:15;;;;;;;1.53;1.37;;;22.80;99.90;;;;;;5073603;28;20466;-87
2023/09/29 09:09:51;;;;;;;3.03;1.47;;;22.60;99.90;;;;;;5073778;28;20808;-87
2023/09/29 09:12:18;;;;;;;1.63;1.53;;;22.50;99.90;;;;;;5074425;28;20483;-87
2023/09/29 09:14:45;;;;;;;1.37;1.30;;;22.60;99.90;;;;;;5073692;28;20444;-87
2023/09/29 09:17:12;;;;;;;1.23;1.23;;;22.70;99.90;;;;;;5073280;28;20949;-87
2023/09/29 09:19:45;;;;;;;2.20;1.50;;;22.90;99.90;;;;;;5073414;28;20201;-87
2023/09/29 09:22:16;;;;;;;1.60;1.50;;;23.10;99.90;;;;;;5073550;28;20221;-86
2023/09/29 09:24:42;;;;;;;3.93;1.70;;;23.20;99.90;;;;;;5073291;28;20221;-87
2023/09/29 09:27:11;;;;;;;1.73;1.30;;;23.40;99.90;;;;;;5073551;28;20202;-87
2023/09/29 09:29:42;;;;;;;8.00;1.42;;;23.60;99.90;;;;;;5073396;28;20190;-87
2023/09/29 09:32:10;;;;;;;2.00;1.30;;;24.00;99.90;;;;;;5077092;28;20233;-87
2023/09/29 09:34:39;;;;;;;2.20;1.15;;;24.00;99.90;;;;;;5078037;28;20197;-87
2023/09/29 09:37:06;;;;;;;1.50;1.40;;;24.00;99.90;;;;;;5077695;28;20198;-87
2023/09/29 09:39:34;;;;;;;1.30;1.10;;;24.00;99.90;;;;;;5077534;28;20577;-87
2023/09/29 09:42:05;;;;;;;1.33;1.23;;;24.00;99.90;;;;;;5077333;28;20247;-87
2023/09/29 09:44:34;;;;;;;2.25;1.45;;;24.10;99.90;;;;;;5077218;28;20234;-88
2023/09/29 09:47:02;;;;;;;1.63;1.33;;;24.20;99.90;;;;;;5077212;28;20189;-87
2023/09/29 09:49:36;;;;;;;1.33;1.13;;;24.20;99.90;;;;;;5077450;28;20197;-87
2023/09/29 09:52:08;;;;;;;1.58;1.40;;;24.30;99.90;;;;;;5077372;28;20263;-87
2023/09/29 09:54:44;;;;;;;1.67;1.58;;;24.40;99.90;;;;;;5078097;28;20548;-87
2023/09/29 09:57:13;;;;;;;3.65;1.77;;;24.50;99.90;;;;;;5077166;28;20186;-88
2023/09/29 09:59:44;;;;;;;3.50;1.50;;;24.70;99.90;;;;;;5077533;28;20210;-88
2023/09/29 10:02:11;;;;;;;1.70;1.20;;;24.60;99.90;;;;;;5077394;28;20222;-87
2023/09/29 10:04:39;;;;;;;3.40;1.98;;;24.40;99.90;;;;;;5076998;28;20255;-87
2023/09/29 10:07:06;;;;;;;4.97;1.42;;;24.20;99.90;;;;;;5076992;28;20210;-87
2023/09/29 10:09:44;;;;;;;3.45;1.20;;;24.20;99.90;;;;;;5076768;28;20190;-87
2023/09/29 10:12:24;;;;;;;1.95;1.25;;;24.20;99.90;;;;;;5077016;28;20225;-87
2023/09/29 10:14:53;;;;;;;1.95;1.30;;;24.50;99.90;;;;;;5076649;28;20182;-87
2023/09/29 10:17:20;;;;;;;1.30;1.13;;;24.90;99.90;;;;;;5076662;28;20252;-87
2023/09/29 10:19:50;;;;;;;0.95;0.95;;;25.30;99.90;;;;;;5076669;28;20228;-83
2023/09/29 10:22:24;;;;;;;1.73;1.33;;;25.60;99.90;;;;;;5076275;28;20714;-86
2023/09/29 10:24:56;;;;;;;1.42;1.33;;;25.90;99.90;;;;;;5076450;28;20206;-85
2023/09/29 10:27:31;;;;;;;2.05;1.25;;;26.20;99.90;;;;;;5076034;28;20198;-85
2023/09/29 10:30:16;;;;;;;1.30;1.20;;;26.70;99.90;;;;;;5076021;28;20205;-85
2023/09/29 10:32:45;;;;;;;1.27;1.17;;;27.50;99.90;;;;;;5076192;28;20221;-85
2023/09/29 10:35:18;;;;;;;1.50;1.40;;;28.70;99.90;;;;;;5076273;28;20186;-85
2023/09/29 10:37:49;;;;;;;1.98;1.13;;;29.80;99.90;;;;;;5076163;28;20277;-85
2023/09/29 10:40:25;;;;;;;1.13;0.93;;;30.90;99.90;;;;;;5076397;28;20190;-84
2023/09/29 10:42:56;;;;;;;1.35;0.95;;;31.80;99.40;;;;;;5075322;28;20230;-85
2023/09/29 10:45:30;;;;;;;2.25;1.13;;;32.10;97.50;;;;;;5076271;28;20201;-85
2023/09/29 10:48:01;;;;;;;0.80;0.80;;;31.70;96.30;;;;;;5076028;28;20193;-85
2023/09/29 10:50:29;;;;;;;1.60;1.10;;;31.40;96.40;;;;;;5076033;28;20284;-85
2023/09/29 10:52:56;;;;;;;1.45;0.80;;;31.10;96.30;;;;;;5075785;28;20226;-85
2023/09/29 10:55:23;;;;;;;1.23;1.13;;;30.30;97.10;;;;;;5075768;28;20203;-84
2023/09/29 10:57:50;;;;;;;1.52;1.35;;;29.60;98.30;;;;;;5075827;28;20207;-83
2023/09/29 11:00:18;;;;;;;6.53;1.90;;;28.90;98.70;;;;;;5075605;28;20637;-84
2023/09/29 11:02:49;;;;;;;1.30;1.30;;;28.30;99.80;;;;;;5075493;28;20656;-85
2023/09/29 11:05:16;;;;;;;1.30;1.20;;;27.70;99.90;;;;;;5075613;28;20203;-85
2023/09/29 11:07:47;;;;;;;5.82;1.95;;;27.40;99.90;;;;;;5075782;28;20190;-84
2023/09/29 11:10:17;;;;;;;0.93;0.93;;;27.00;99.90;;;;;;5075541;28;20204;-84
2023/09/29 11:12:46;;;;;;;1.98;1.40;;;26.90;99.90;;;;;;5075444;28;20222;-85
2023/09/29 11:15:14;;;;;;;6.82;2.08;;;26.70;99.90;;;;;;5075640;28;20196;-85
2023/09/29 11:17:46;;;;;;;1.73;1.60;;;26.70;99.90;;;;;;5075333;28;20674;-85
2023/09/29 11:20:25;;;;;;;1.40;1.30;;;26.50;99.90;;;;;;5075360;28;20292;-85
2023/09/29 11:23:00;;;;;;;1.70;1.60;;;26.50;99.90;;;;;;5075194;28;20221;-85
2023/09/29 11:25:27;;;;;;;3.03;1.88;;;26.50;99.90;;;;;;5075400;28;20296;-85
2023/09/29 11:27:54;;;;;;;2.97;1.80;;;26.50;99.90;;;;;;5075209;28;20202;-85
2023/09/29 11:30:24;;;;;;;1.30;1.10;;;26.50;99.90;;;;;;5075231;28;20202;-85
2023/09/29 11:32:53;;;;;;;1.80;1.58;;;26.40;99.90;;;;;;5075182;28;20226;-86
2023/09/29 11:35:21;;;;;;;1.10;1.00;;;26.30;99.90;;;;;;5075097;28;20202;-85
2023/09/29 11:37:48;;;;;;;1.65;1.52;;;26.30;99.90;;;;;;5075360;28;20301;-85
2023/09/29 11:40:16;;;;;;;3.78;1.35;;;26.30;99.90;;;;;;5075050;28;20202;-85
2023/09/29 11:42:45;;;;;;;1.58;1.48;;;26.20;99.90;;;;;;5074574;28;20242;-85
2023/09/29 11:45:12;;;;;;;2.13;1.58;;;26.10;99.90;;;;;;5074766;28;20643;-85
2023/09/29 11:47:40;;;;;;;1.33;1.23;;;26.20;99.90;;;;;;5074952;28;20202;-86
2023/09/29 11:50:09;;;;;;;1.50;1.40;;;26.20;99.90;;;;;;5074749;28;20214;-84
2023/09/29 11:52:39;;;;;;;2.70;1.33;;;26.10;99.90;;;;;;5074493;28;20257;-84
2023/09/29 11:55:08;;;;;;;1.95;1.85;;;26.10;99.90;;;;;;5074132;28;20244;-84
2023/09/29 11:57:37;;;;;;;1.65;1.50;;;26.00;99.90;;;;;;5074709;28;20202;-84
2023/09/29 12:00:08;;;;;;;1.60;1.50;;;25.80;99.90;;;;;;5074602;28;20205;-85
2023/09/29 12:02:34;;;;;;;4.53;1.48;;;25.80;99.90;;;;;;5074094;28;20222;-85
2023/09/29 12:05:01;;;;;;;2.05;1.92;;;25.80;99.90;;;;;;5074061;28;20225;-85
2023/09/29 12:07:29;;;;;;;1.33;1.23;;;25.70;99.90;;;;;;5074440;28;20205;-84
2023/09/29 12:09:56;;;;;;;2.40;2.20;;;25.60;99.90;;;;;;5074283;28;20206;-85
2023/09/29 12:12:23;;;;;;;1.90;1.50;;;25.80;99.90;;;;;;5074226;28;20221;-84
2023/09/29 12:14:50;;;;;;;1.50;1.40;;;25.60;99.90;;;;;;5074223;28;20198;-85
2023/09/29 12:17:16;;;;;;;1.63;1.52;;;25.50;99.90;;;;;;5074309;28;20209;-85
2023/09/29 12:19:43;;;;;;;1.58;1.48;;;25.60;99.90;;;;;;5074232;28;20217;-85
2023/09/29 12:22:11;;;;;;;1.75;1.40;;;25.50;99.90;;;;;;5074109;28;20248;-85
2023/09/29 12:24:39;;;;;;;2.13;1.48;;;25.60;99.90;;;;;;5074929;28;20280;-85
2023/09/29 12:27:07;;;;;;;1.30;1.20;;;25.60;99.90;;;;;;5074252;28;20659;-85
2023/09/29 12:29:34;;;;;;;1.67;1.20;;;25.40;99.90;;;;;;5074138;28;20252;-85
2023/09/29 12:32:01;;;;;;;1.67;1.58;;;25.40;99.90;;;;;;5073573;28;20737;-84
2023/09/29 12:34:31;;;;;;;1.67;1.58;;;25.90;99.90;;;;;;5073581;28;20685;-85
2023/09/29 12:36:58;;;;;;;2.08;1.20;;;25.20;99.90;;;;;;5073948;28;20189;-84
2023/09/29 12:39:25;;;;;;;2.83;1.40;;;25.70;99.90;;;;;;5074037;28;20213;-84
2023/09/29 12:41:53;;;;;;;1.30;1.30;;;25.20;99.90;;;;;;5073444;28;20237;-85
2023/09/29 12:44:19;;;;;;;4.80;1.75;;;25.50;99.90;;;;;;5073773;28;20228;-85
2023/09/29 12:46:46;;;;;;;1.30;1.20;;;25.10;99.90;;;;;;5073790;28;20206;-85
2023/09/29 12:49:13;;;;;;;4.57;1.65;;;25.60;99.90;;;;;;5073343;28;20575;-84
2023/09/29 12:51:40;;;;;;;1.63;1.52;;;25.10;99.90;;;;;;5073298;28;20208;-86